Dry Ridge, Kentucky
Current Conditions -  °F | °C
As of 8:52 PM on Sunday 23 Nov 2014 (Local Time) from KCVG Reporting Station
Light Rain Light Rain  
Wind Chill: 56°   Ceiling: 3400
Heat Index: 56°   Visibility: 8mi
Dew Point: 52°   Wind: 21mph
Humidity: 87%   Direction: 140°SE
Pressure: 29.35"   Gusts: 29mph
Location:  38.68°N, 84.59°W
Report Text: KCVG 240152Z 14018G25KT 8SM -RA FEW014 SCT025 OVC034 13/11 A2935 RMK AO2 PK WND 16033/0118 CIG 027 36R SLP935 P0007 T01330111
Loading
Personal Weather Stations






























Interactive Weather Map New forecast layout! Learn more

10-Day Weather Forecast

Advertisements
Track Severe Weather on mobile